Terminal Aerodrome Forecast
Issued by NWS Shreveport, LA

Home | Current Version | Previous Version | Text Only | Print | Product List | Glossary On
Versions: 1 2 3 4 5 6 7 8 9 10 11 12 13 14
000
FTUS44 KSHV 060520
TAFGGG
TAF
KGGG 060520Z 0606/0706 15009KT P6SM BKN100 BKN250
     FM060900 16009KT P6SM SCT015 BKN100
      TEMPO 0609/0612 BKN015
     FM061200 16010KT P6SM VCSH BKN015
     FM061700 16010KT P6SM BKN025
     FM061800 17011KT P6SM BKN035
     FM070000 15009KT P6SM SCT060 SCT250=

USA.gov is the U.S. government's official web portal to all federal, state and local government web resources and services.